createdAt,value
2023-04-18T00:28:56.647Z,71.59
2023-04-18T05:47:41.701Z,79.94
2023-04-18T05:50:57.215Z,78.96
2023-04-18T05:53:29.519Z,78.69
2023-04-18T05:56:05.436Z,77.99
2023-04-18T05:58:35.065Z,77.53
2023-04-18T06:01:05.139Z,77.61
2023-04-18T06:12:32.858Z,76.17
2023-04-18T06:15:18.690Z,75.76
2023-04-18T06:27:59.307Z,75.22
2023-04-18T07:04:31.931Z,71.82
2023-04-18T07:39:42.027Z,72.11
2023-04-18T17:58:40.084Z,63.27
2023-04-18T18:04:00.818Z,63.73
2023-04-18T18:09:08.421Z,64.52
2023-04-18T18:11:35.458Z,64.72
2023-04-18T18:14:02.184Z,65.14
2023-04-18T18:19:09.217Z,65.39
2023-04-18T18:21:36.544Z,65.34
2023-04-18T18:26:43.639Z,65.64
2023-04-18T18:31:51.642Z,66.49
2023-04-18T18:34:18.193Z,66.59
2023-04-18T18:36:44.778Z,66.77
2023-04-18T18:39:11.789Z,66.76
2023-04-18T18:41:45.945Z,67.23
2023-04-18T18:44:12.496Z,67.18
2023-04-18T18:46:39.136Z,67.37
2023-04-18T18:49:05.820Z,67.55
2023-04-18T18:51:32.806Z,67.78
2023-04-18T18:56:40.280Z,68.01
2023-04-18T19:01:47.341Z,68.68
2023-04-18T19:04:14.237Z,68.99
2023-04-18T19:06:45.748Z,69.20
2023-04-18T19:09:12.851Z,69.56
2023-04-18T19:11:39.615Z,69.77
2023-04-18T19:14:06.178Z,70.05
2023-04-18T19:16:34.233Z,70.11
2023-04-18T19:19:01.179Z,69.90
2023-04-18T19:21:28.054Z,70.21
2023-04-18T19:23:54.608Z,70.37
2023-04-18T19:26:21.817Z,70.38
2023-04-18T19:28:48.585Z,70.63
2023-04-18T19:33:55.641Z,70.63
2023-04-18T19:39:03.005Z,70.51
2023-04-18T19:41:29.602Z,70.65
2023-04-18T19:46:37.724Z,70.13
2023-04-18T19:51:44.704Z,70.15
2023-04-18T19:54:11.295Z,70.27
2023-04-18T19:59:19.075Z,70.10
2023-04-18T20:01:45.652Z,70.10
2023-04-18T20:04:12.432Z,70.05
2023-04-18T20:06:39.127Z,69.77
2023-04-18T20:09:05.913Z,69.54
2023-04-18T20:11:32.674Z,69.62
2023-04-18T20:13:59.272Z,69.76
2023-04-18T20:16:26.180Z,69.90
2023-04-18T20:18:54.882Z,70.06
2023-04-18T20:21:21.696Z,70.07
2023-04-18T20:23:48.278Z,70.19
2023-04-18T20:26:14.941Z,70.06
2023-04-18T20:28:41.731Z,69.91
2023-04-18T20:31:08.393Z,69.95
2023-04-18T20:33:36.248Z,69.82
2023-04-18T20:36:02.840Z,69.72
2023-04-18T20:38:29.905Z,69.73
2023-04-18T20:40:59.008Z,69.66
2023-04-18T20:43:25.944Z,69.36
2023-04-18T20:45:53.844Z,69.15
2023-04-18T20:48:21.075Z,69.56
2023-04-18T20:53:31.649Z,69.49
2023-04-18T20:58:38.681Z,69.61
2023-04-18T21:03:46.020Z,69.64
2023-04-18T21:06:12.906Z,69.84
2023-04-18T21:41:38.558Z,70.27
